Time;durP1;ratioP1;P1;durP2;ratioP2;P2;SDS_P1;SDS_P2;PMS_P1;PMS_P2;Temp;Humidity;BMP_temperature;BMP_pressure;BME280_temperature;BME280_humidity;BME280_pressure;Samples;Min_cycle;Max_cycle;Signal;HPM_P1;HPM_P2
2023/01/03 00:02:11;;;;;;;;;;;;;;;5.67;69.84;100431.97;5122161;27;2482;-83
2023/01/03 00:04:37;;;;;;;;;;;;;;;5.63;70.11;100438.72;5122682;27;2338;-83
2023/01/03 00:07:04;;;;;;;;;;;;;;;5.80;69.54;100444.63;5119309;27;2125;-83
2023/01/03 00:09:30;;;;;;;;;;;;;;;5.72;69.79;100443.94;5124116;27;2257;-83
2023/01/03 00:14:41;;;;;;;;;;;;;;;5.72;69.90;100451.94;5129876;27;2232;-83
2023/01/03 00:17:08;;;;;;;;;;;;;;;5.67;69.86;100456.00;5121396;27;2162;-83
2023/01/03 00:19:34;;;;;;;;;;;;;;;5.67;69.88;100464.03;5129297;27;1919;-83
2023/01/03 00:22:01;;;;;;;;;;;;;;;5.56;70.33;100466.34;5122360;27;2148;-83
2023/01/03 00:24:28;;;;;;;;;;;;;;;5.75;69.69;100478.28;5124477;27;1900;-83
2023/01/03 00:26:54;;;;;;;;;;;;;;;5.61;69.96;100480.00;5133193;27;2067;-83
2023/01/03 00:29:21;;;;;;;;;;;;;;;5.65;69.79;100487.44;5118567;27;2228;-84
2023/01/03 00:31:47;;;;;;;;;;;;;;;5.60;69.99;100481.03;5123212;27;2079;-83
2023/01/03 00:34:14;;;;;;;;;;;;;;;5.63;69.89;100485.97;5131153;27;2066;-83
2023/01/03 00:36:41;;;;;;;;;;;;;;;5.67;69.77;100485.41;5121156;27;2251;-84
2023/01/03 00:39:07;;;;;;;;;;;;;;;5.59;70.08;100492.69;5120221;27;2182;-84
2023/01/03 00:41:34;;;;;;;;;;;;;;;5.67;70.02;100504.09;5120093;27;2244;-83
2023/01/03 00:44:00;;;;;;;;;;;;;;;5.72;69.62;100508.91;5134143;27;2082;-83
2023/01/03 00:46:27;;;;;;;;;;;;;;;5.72;69.79;100510.75;5120682;27;1991;-84
2023/01/03 00:48:53;;;;;;;;;;;;;;;5.65;69.97;100510.69;5132444;27;2296;-83
2023/01/03 00:51:20;;;;;;;;;;;;;;;5.68;69.79;100515.66;5120326;27;2158;-83
2023/01/03 00:53:46;;;;;;;;;;;;;;;5.64;69.94;100517.84;5124946;27;1857;-85
2023/01/03 00:56:13;;;;;;;;;;;;;;;5.64;70.01;100520.50;5129976;27;2648;-83
2023/01/03 00:58:39;;;;;;;;;;;;;;;5.60;70.18;100521.09;5119310;27;4799;-83
2023/01/03 01:01:06;;;;;;;;;;;;;;;5.66;69.77;100521.16;5126443;27;3884;-84
2023/01/03 01:03:33;;;;;;;;;;;;;;;5.14;69.87;100449.25;5117232;27;2037;-84
2023/01/03 01:05:59;;;;;;;;;;;;;;;5.65;69.71;100524.03;5121776;27;3944;-83
2023/01/03 01:08:26;;;;;;;;;;;;;;;5.67;69.54;100527.31;5119977;27;2059;-83
2023/01/03 01:11:01;;;;;;;;;;;;;;;5.65;69.63;100521.38;5122707;27;2106;-83
2023/01/03 01:13:28;;;;;;;;;;;;;;;5.71;69.42;100531.31;5122310;27;2405;-83
2023/01/03 01:15:55;;;;;;;;;;;;;;;5.72;69.63;100535.63;5125596;27;2081;-83
2023/01/03 01:18:21;;;;;;;;;;;;;;;5.65;69.77;100540.06;5122505;27;4042;-83
2023/01/03 01:20:48;;;;;;;;;;;;;;;5.73;69.49;100539.13;5132184;27;2163;-83
2023/01/03 01:23:14;;;;;;;;;;;;;;;5.78;69.30;100550.91;5117302;27;1994;-84
2023/01/03 01:25:41;;;;;;;;;;;;;;;5.72;69.50;100553.50;5121099;27;2030;-84
2023/01/03 01:28:08;;;;;;;;;;;;;;;5.63;69.80;100564.28;5127514;27;2225;-84
2023/01/03 01:30:35;;;;;;;;;;;;;;;5.68;69.65;100563.75;5124001;27;2426;-84
2023/01/03 01:33:02;;;;;;;;;;;;;;;5.72;69.52;100567.69;5127515;27;2181;-84
2023/01/03 01:35:28;;;;;;;;;;;;;;;5.59;69.71;100578.19;5127581;27;2073;-83
2023/01/03 01:37:55;;;;;;;;;;;;;;;5.74;69.20;100575.53;5115101;27;2721;-83
2023/01/03 01:40:21;;;;;;;;;;;;;;;5.65;69.90;100590.84;5119695;27;2143;-83
2023/01/03 01:45:34;;;;;;;;;;;;;;;5.67;69.51;100594.13;5123833;27;2054;-83
2023/01/03 01:48:01;;;;;;;;;;;;;;;5.72;69.41;100597.09;5123757;27;2617;-83
2023/01/03 01:50:27;;;;;;;;;;;;;;;5.61;69.83;100605.56;5123138;27;2668;-83
2023/01/03 01:52:54;;;;;;;;;;;;;;;5.69;69.39;100608.97;5136008;27;1765;-84
2023/01/03 01:55:20;;;;;;;;;;;;;;;5.75;69.18;100609.25;5123549;27;3745;-84
2023/01/03 01:57:47;;;;;;;;;;;;;;;5.70;69.45;100620.47;5128497;27;2081;-84
2023/01/03 02:00:13;;;;;;;;;;;;;;;5.69;69.53;100622.34;5128232;27;2135;-84
2023/01/03 02:02:41;;;;;;;;;;;;;;;5.74;68.96;100624.47;5142350;27;2157;-84
2023/01/03 02:05:07;;;;;;;;;;;;;;;5.77;69.23;100623.25;5129413;27;2490;-83
2023/01/03 02:07:34;;;;;;;;;;;;;;;5.75;69.21;100631.44;5131749;27;1814;-83
2023/01/03 02:10:00;;;;;;;;;;;;;;;5.77;69.14;100642.78;5121055;27;2181;-83
2023/01/03 02:15:12;;;;;;;;;;;;;;;5.69;69.37;100643.72;5128494;27;2157;-85
2023/01/03 02:17:38;;;;;;;;;;;;;;;5.75;69.09;100644.81;5127837;27;2090;-84
2023/01/03 02:20:05;;;;;;;;;;;;;;;5.63;69.59;100652.47;5138611;27;2330;-83
2023/01/03 02:22:31;;;;;;;;;;;;;;;5.62;69.63;100648.16;5118450;27;2205;-83
2023/01/03 02:24:58;;;;;;;;;;;;;;;5.76;69.05;100642.97;5127080;27;2745;-84
2023/01/03 02:27:24;;;;;;;;;;;;;;;5.73;69.21;100656.69;5124531;27;2290;-84
2023/01/03 02:29:51;;;;;;;;;;;;;;;5.62;69.81;100661.50;5126309;27;2288;-84
2023/01/03 02:32:17;;;;;;;;;;;;;;;5.81;68.79;100664.63;5123033;27;2007;-83
2023/01/03 02:34:44;;;;;;;;;;;;;;;5.60;69.59;100660.03;5128074;27;2047;-84
2023/01/03 02:37:10;;;;;;;;;;;;;;;5.57;69.79;100663.06;5124264;27;1996;-83
2023/01/03 02:39:37;;;;;;;;;;;;;;;5.66;69.47;100659.28;5119708;27;2662;-83
2023/01/03 02:44:47;;;;;;;;;;;;;;;5.69;69.16;100662.41;5124568;27;2011;-83
2023/01/03 02:47:14;;;;;;;;;;;;;;;5.66;69.56;100662.78;5123477;27;2087;-84
2023/01/03 02:49:40;;;;;;;;;;;;;;;5.75;68.98;100660.84;5127061;27;2211;-84
2023/01/03 02:52:07;;;;;;;;;;;;;;;5.64;69.30;100662.13;5134712;27;2180;-84
2023/01/03 02:54:34;;;;;;;;;;;;;;;5.68;69.09;100660.78;5121685;27;2172;-83
2023/01/03 02:57:01;;;;;;;;;;;;;;;5.77;68.79;100658.00;5120135;27;2234;-84
2023/01/03 02:59:28;;;;;;;;;;;;;;;5.77;68.75;100658.84;5119325;27;2153;-84
2023/01/03 03:01:54;;;;;;;;;;;;;;;5.63;69.33;100665.00;5119211;27;2070;-84
2023/01/03 03:04:21;;;;;;;;;;;;;;;5.78;68.80;100668.50;5119208;27;2114;-83
2023/01/03 03:06:48;;;;;;;;;;;;;;;5.76;68.58;100667.84;5121336;27;2141;-84
2023/01/03 03:09:14;;;;;;;;;;;;;;;5.67;69.35;100669.78;5127297;27;2224;-82
2023/01/03 03:14:25;;;;;;;;;;;;;;;5.78;68.58;100665.00;5125096;27;2077;-83
2023/01/03 03:16:52;;;;;;;;;;;;;;;5.69;69.28;100669.63;5128805;27;1983;-83
2023/01/03 03:24:48;;;;;;;;;;;;;;;5.75;68.67;100671.53;5123757;27;2087;-83
2023/01/03 03:24:52;;;;;;;;;;;;;;;5.69;69.01;100683.78;5141054;27;1959;-85
2023/01/03 03:30:00;;;;;;;;;;;;;;;5.74;68.62;100687.78;5120498;27;4201;-84
2023/01/03 03:32:26;;;;;;;;;;;;;;;5.69;68.78;100691.81;5127472;27;2766;-84
2023/01/03 03:34:53;;;;;;;;;;;;;;;5.65;69.17;100687.88;5116898;27;3915;-84
2023/01/03 03:37:19;;;;;;;;;;;;;;;5.69;68.75;100694.50;5123202;27;2248;-83
2023/01/03 03:45:15;;;;;;;;;;;;;;;5.68;68.85;100706.19;5120576;27;2080;-84
2023/01/03 03:47:41;;;;;;;;;;;;;;;5.63;69.21;100708.59;5114108;27;4079;-84
2023/01/03 03:50:08;;;;;;;;;;;;;;;5.75;68.51;100708.13;5122114;27;2196;-84
2023/01/03 03:52:34;;;;;;;;;;;;;;;5.63;69.25;100703.25;5122761;27;2214;-84
2023/01/03 03:55:01;;;;;;;;;;;;;;;5.66;68.87;100712.75;5117555;27;1952;-84
2023/01/03 03:57:27;;;;;;;;;;;;;;;5.74;68.45;100715.31;5138490;27;2058;-83
2023/01/03 03:59:54;;;;;;;;;;;;;;;5.70;68.70;100714.84;5127631;27;2173;-83
2023/01/03 04:02:20;;;;;;;;;;;;;;;5.78;68.30;100715.78;5120586;27;1965;-83
2023/01/03 04:04:47;;;;;;;;;;;;;;;5.73;68.63;100721.66;5114949;27;1940;-83
2023/01/03 04:07:14;;;;;;;;;;;;;;;5.76;68.33;100723.97;5126306;27;2637;-84
2023/01/03 04:09:40;;;;;;;;;;;;;;;5.68;68.77;100726.75;5124118;27;2234;-84
2023/01/03 04:12:07;;;;;;;;;;;;;;;5.76;68.59;100721.28;5122310;27;1980;-83
2023/01/03 04:14:34;;;;;;;;;;;;;;;5.82;68.25;100722.41;5115659;27;2441;-84
2023/01/03 04:17:00;;;;;;;;;;;;;;;5.64;69.05;100728.94;5100246;28;2163;-83
2023/01/03 04:19:27;;;;;;;;;;;;;;;5.71;68.93;100723.72;5125891;27;2086;-82
2023/01/03 04:21:54;;;;;;;;;;;;;;;5.67;68.90;100725.06;5118763;27;1898;-84
2023/01/03 04:24:21;;;;;;;;;;;;;;;5.73;68.46;100731.53;5123809;27;4551;-84
2023/01/03 04:26:47;;;;;;;;;;;;;;;5.77;68.45;100733.66;5120692;27;3603;-84
2023/01/03 04:29:14;;;;;;;;;;;;;;;5.74;68.41;100734.03;5125319;27;2034;-83
2023/01/03 04:31:40;;;;;;;;;;;;;;;5.64;68.62;100742.31;5113881;27;3475;-83
2023/01/03 04:34:07;;;;;;;;;;;;;;;5.71;68.60;100742.44;5117763;27;2128;-83
2023/01/03 04:36:33;;;;;;;;;;;;;;;5.66;68.69;100750.16;5128812;27;2284;-83
2023/01/03 04:39:00;;;;;;;;;;;;;;;5.68;68.66;100753.47;5121633;27;2271;-83
2023/01/03 04:41:27;;;;;;;;;;;;;;;5.77;68.32;100765.75;5119144;27;1985;-84
2023/01/03 04:44:01;;;;;;;;;;;;;;;5.67;68.64;100765.97;5126389;27;2047;-83
2023/01/03 04:46:28;;;;;;;;;;;;;;;5.67;68.79;100774.00;5115047;27;1819;-84
2023/01/03 04:48:55;;;;;;;;;;;;;;;5.79;67.97;100779.72;5124851;27;2057;-83
2023/01/03 04:51:21;;;;;;;;;;;;;;;5.67;68.83;100781.19;5121140;27;2318;-83
2023/01/03 04:53:48;;;;;;;;;;;;;;;5.58;68.76;100783.13;5129989;27;2286;-83
2023/01/03 04:56:15;;;;;;;;;;;;;;;5.77;68.33;100788.97;5124814;27;2282;-83
2023/01/03 04:58:41;;;;;;;;;;;;;;;5.65;68.45;100786.75;5121617;27;2161;-84
2023/01/03 05:01:08;;;;;;;;;;;;;;;5.78;68.14;100788.78;5124745;27;2637;-84
2023/01/03 05:03:36;;;;;;;;;;;;;;;5.75;68.16;100791.00;5125203;27;2245;-84
2023/01/03 05:06:03;;;;;;;;;;;;;;;5.61;68.48;100790.75;5125445;27;2607;-83
2023/01/03 05:08:29;;;;;;;;;;;;;;;5.72;68.44;100802.88;5123495;27;2157;-84
2023/01/03 05:10:56;;;;;;;;;;;;;;;5.73;68.20;100793.81;5123551;27;2576;-83
2023/01/03 05:13:22;;;;;;;;;;;;;;;5.64;68.46;100801.09;5127800;27;2323;-84
2023/01/03 05:15:49;;;;;;;;;;;;;;;5.68;68.52;100801.59;5118278;27;2030;-84
2023/01/03 05:18:15;;;;;;;;;;;;;;;5.66;68.31;100801.75;5128769;27;2059;-84
2023/01/03 05:26:10;;;;;;;;;;;;;;;5.63;68.90;100810.13;5126011;27;1984;-85
2023/01/03 05:28:37;;;;;;;;;;;;;;;5.63;68.55;100820.00;5130131;27;2514;-84
2023/01/03 05:31:03;;;;;;;;;;;;;;;5.72;68.30;100820.75;5120556;27;2062;-84
2023/01/03 05:33:30;;;;;;;;;;;;;;;5.70;68.40;100823.59;5118002;27;2134;-83
2023/01/03 05:35:57;;;;;;;;;;;;;;;5.58;68.72;100825.88;5120995;27;2520;-84
2023/01/03 05:38:23;;;;;;;;;;;;;;;5.57;68.76;100821.53;5119366;27;2350;-84
2023/01/03 05:40:50;;;;;;;;;;;;;;;5.63;68.55;100831.50;5123238;27;2166;-84
2023/01/03 05:43:16;;;;;;;;;;;;;;;5.63;68.29;100836.03;5124510;27;2189;-84
2023/01/03 05:45:43;;;;;;;;;;;;;;;5.70;68.35;100826.25;5125916;27;2075;-84
2023/01/03 05:48:09;;;;;;;;;;;;;;;5.57;68.77;100834.06;5134967;27;2109;-84
2023/01/03 05:50:36;;;;;;;;;;;;;;;5.64;68.48;100833.16;5126190;27;2478;-84
2023/01/03 05:53:03;;;;;;;;;;;;;;;5.65;68.16;100839.34;5125840;27;2105;-84
2023/01/03 05:55:30;;;;;;;;;;;;;;;5.75;67.83;100844.44;5125441;27;2057;-83
2023/01/03 05:57:57;;;;;;;;;;;;;;;5.61;68.14;100846.88;5121091;27;1480;-84
2023/01/03 06:00:23;;;;;;;;;;;;;;;5.64;68.45;100856.38;5130520;27;4984;-84
2023/01/03 06:02:50;;;;;;;;;;;;;;;5.63;68.28;100854.72;5142836;27;2301;-85
2023/01/03 06:05:16;;;;;;;;;;;;;;;5.60;68.32;100863.09;5121932;27;3982;-85
2023/01/03 06:07:43;;;;;;;;;;;;;;;5.63;67.94;100860.06;5125202;27;1977;-84
2023/01/03 06:10:10;;;;;;;;;;;;;;;5.66;68.07;100865.88;5123561;27;2120;-84
2023/01/03 06:12:36;;;;;;;;;;;;;;;5.62;68.15;100872.63;5123984;27;2043;-84
2023/01/03 06:15:03;;;;;;;;;;;;;;;5.66;68.06;100876.56;5122736;27;2165;-84
2023/01/03 06:20:14;;;;;;;;;;;;;;;5.70;68.11;100880.53;5121692;27;2170;-84
2023/01/03 06:22:41;;;;;;;;;;;;;;;5.67;68.07;100880.91;5122189;27;2196;-84
2023/01/03 06:25:07;;;;;;;;;;;;;;;5.66;68.08;100886.44;5120194;27;2140;-84
2023/01/03 06:27:34;;;;;;;;;;;;;;;5.66;68.04;100886.44;5126617;27;1925;-84
2023/01/03 06:30:01;;;;;;;;;;;;;;;5.67;67.81;100880.06;5127478;27;2373;-84
2023/01/03 06:32:27;;;;;;;;;;;;;;;5.55;68.38;100885.00;5121865;27;2069;-84
2023/01/03 06:34:54;;;;;;;;;;;;;;;5.66;68.03;100889.09;5126268;27;2166;-84
2023/01/03 06:37:21;;;;;;;;;;;;;;;5.63;68.22;100889.47;5125880;27;2202;-84
2023/01/03 06:39:47;;;;;;;;;;;;;;;5.70;67.73;100883.22;5115854;27;2355;-85
2023/01/03 06:53:12;;;;;;;;;;;;;;;5.72;67.71;100907.09;5126104;27;1818;-83
2023/01/03 06:55:40;;;;;;;;;;;;;;;5.70;67.92;100906.44;5118856;27;3848;-85
2023/01/03 06:58:06;;;;;;;;;;;;;;;5.68;67.61;100909.31;5120393;27;3737;-83
2023/01/03 07:00:33;;;;;;;;;;;;;;;5.70;67.66;100901.09;5121701;27;3475;-84
2023/01/03 07:03:00;;;;;;;;;;;;;;;5.64;67.76;100905.31;5124817;27;2158;-84
2023/01/03 07:05:26;;;;;;;;;;;;;;;5.59;67.74;100918.41;5122759;27;2051;-85
2023/01/03 07:07:53;;;;;;;;;;;;;;;5.61;67.86;100932.38;5124753;27;2172;-85
2023/01/03 07:10:19;;;;;;;;;;;;;;;5.50;68.27;100927.47;5119997;27;2573;-84
2023/01/03 07:15:30;;;;;;;;;;;;;;;5.55;68.10;100938.44;5127801;27;4269;-84
2023/01/03 07:17:57;;;;;;;;;;;;;;;5.56;68.10;100942.81;5119595;27;2224;-84
2023/01/03 07:20:24;;;;;;;;;;;;;;;5.52;68.28;100946.81;5120489;27;2090;-85
2023/01/03 07:22:50;;;;;;;;;;;;;;;5.56;68.01;100945.47;5120716;27;2230;-85
2023/01/03 07:25:17;;;;;;;;;;;;;;;5.53;68.33;100944.97;5120835;27;2570;-84
2023/01/03 07:27:43;;;;;;;;;;;;;;;5.64;67.86;100941.91;5124232;27;2604;-84
2023/01/03 07:30:10;;;;;;;;;;;;;;;5.69;67.49;100942.19;5128328;28;2156;-84
2023/01/03 07:32:36;;;;;;;;;;;;;;;5.57;67.81;100957.81;5124508;28;1747;-84
2023/01/03 07:35:03;;;;;;;;;;;;;;;5.61;67.80;100953.78;5125292;28;1344;-84
2023/01/03 07:37:29;;;;;;;;;;;;;;;5.60;67.87;100972.66;5126579;28;2224;-85
2023/01/03 07:39:56;;;;;;;;;;;;;;;5.64;67.64;100966.78;5121532;27;2125;-84
2023/01/03 07:45:06;;;;;;;;;;;;;;;5.48;68.29;100974.91;5124210;27;1868;-84
2023/01/03 07:47:33;;;;;;;;;;;;;;;5.46;68.21;100976.91;5122846;28;2166;-84
2023/01/03 07:49:59;;;;;;;;;;;;;;;5.51;67.83;100977.22;5119245;28;1115;-85
2023/01/03 07:52:26;;;;;;;;;;;;;;;5.54;67.90;100984.06;5125097;28;1636;-84
2023/01/03 07:54:53;;;;;;;;;;;;;;;5.60;67.67;100994.88;5122155;28;1936;-84
2023/01/03 07:57:19;;;;;;;;;;;;;;;5.55;67.69;100993.72;5121770;27;2157;-84
2023/01/03 07:59:46;;;;;;;;;;;;;;;5.52;67.99;100994.91;5122621;28;1346;-84
2023/01/03 08:02:12;;;;;;;;;;;;;;;5.58;67.71;101004.06;5128460;27;2157;-85
2023/01/03 08:04:39;;;;;;;;;;;;;;;5.59;67.79;101013.75;5128737;27;2344;-84
2023/01/03 08:07:05;;;;;;;;;;;;;;;5.57;67.82;101013.94;5122235;27;2207;-84
2023/01/03 08:15:00;;;;;;;;;;;;;;;5.60;67.47;101010.91;5110050;27;2586;-85
2023/01/03 08:17:27;;;;;;;;;;;;;;;5.59;67.62;101019.09;5125493;27;2329;-84
2023/01/03 08:19:53;;;;;;;;;;;;;;;5.51;67.83;101021.81;5125296;27;2212;-84
2023/01/03 08:22:20;;;;;;;;;;;;;;;5.54;67.73;101022.28;5116853;27;2806;-84
2023/01/03 08:24:47;;;;;;;;;;;;;;;5.51;67.65;101022.66;5125717;27;2574;-85
2023/01/03 08:27:14;;;;;;;;;;;;;;;5.59;67.61;101025.28;5126529;27;2188;-85
2023/01/03 08:29:40;;;;;;;;;;;;;;;5.63;67.17;101031.09;5127713;27;2192;-85
2023/01/03 08:32:07;;;;;;;;;;;;;;;5.42;67.88;101032.53;5128834;27;2216;-85
2023/01/03 08:34:33;;;;;;;;;;;;;;;5.46;68.14;101036.53;5125239;27;2267;-85
2023/01/03 08:37:00;;;;;;;;;;;;;;;5.67;67.38;101048.44;5119350;27;2111;-83
2023/01/03 08:39:27;;;;;;;;;;;;;;;5.57;67.38;101055.84;5115069;27;2138;-85
2023/01/03 08:41:54;;;;;;;;;;;;;;;5.56;67.34;101054.16;5119160;27;2513;-85
2023/01/03 08:44:20;;;;;;;;;;;;;;;5.43;67.85;101057.41;5146706;27;2154;-85
2023/01/03 08:46:47;;;;;;;;;;;;;;;5.50;67.79;101061.06;5115695;27;2112;-85
2023/01/03 08:49:14;;;;;;;;;;;;;;;5.64;67.40;101067.50;5117563;27;2394;-84
2023/01/03 08:51:41;;;;;;;;;;;;;;;5.44;67.79;101077.75;5118258;27;2090;-82
2023/01/03 08:54:08;;;;;;;;;;;;;;;5.55;67.71;101077.38;5116566;27;2290;-83
2023/01/03 08:56:34;;;;;;;;;;;;;;;5.46;67.75;101078.44;5120734;27;2163;-83
2023/01/03 08:59:01;;;;;;;;;;;;;;;5.52;67.58;101087.59;5123903;27;2083;-84
2023/01/03 09:01:27;;;;;;;;;;;;;;;5.51;67.60;101088.63;5118600;27;2605;-85
2023/01/03 09:03:54;;;;;;;;;;;;;;;5.52;67.40;101092.94;5121924;27;2103;-85
2023/01/03 09:06:21;;;;;;;;;;;;;;;5.50;67.61;101092.28;5134378;27;2567;-84
2023/01/03 09:08:47;;;;;;;;;;;;;;;5.53;67.62;101095.47;5115082;27;1916;-84
2023/01/03 09:11:14;;;;;;;;;;;;;;;5.47;67.57;101090.78;5117574;27;2157;-84
2023/01/03 09:13:41;;;;;;;;;;;;;;;5.56;67.31;101091.56;5120602;27;2334;-83
2023/01/03 09:16:08;;;;;;;;;;;;;;;5.52;67.29;101084.94;5121926;27;2229;-82
2023/01/03 09:18:34;;;;;;;;;;;;;;;5.40;67.96;101085.31;5120600;27;2218;-82
2023/01/03 09:21:02;;;;;;;;;;;;;;;5.44;67.79;101094.66;5122659;27;2149;-83
2023/01/03 09:23:28;;;;;;;;;;;;;;;5.44;67.72;101101.81;5117101;27;2352;-83
2023/01/03 09:25:55;;;;;;;;;;;;;;;5.36;67.70;101100.03;5121625;27;4702;-82
2023/01/03 09:28:21;;;;;;;;;;;;;;;5.46;67.70;101105.16;5113710;27;2150;-83
2023/01/03 09:30:48;;;;;;;;;;;;;;;5.47;67.52;101106.81;5114748;27;2481;-84
2023/01/03 09:33:14;;;;;;;;;;;;;;;5.51;67.55;101112.66;5117907;27;2560;-83
2023/01/03 09:35:41;;;;;;;;;;;;;;;5.55;67.16;101113.97;5116905;27;2420;-84
2023/01/03 09:38:07;;;;;;;;;;;;;;;5.50;67.40;101119.84;5121228;27;2198;-83
2023/01/03 09:40:34;;;;;;;;;;;;;;;5.46;67.27;101129.19;5132092;27;2612;-84
2023/01/03 09:43:13;;;;;;;;;;;;;;;5.45;67.56;101111.50;5118365;27;2100;-84
2023/01/03 09:45:42;;;;;;;;;;;;;;;5.39;67.69;101120.22;5120996;27;2409;-84
2023/01/03 09:48:09;;;;;;;;;;;;;;;5.44;67.61;101118.69;5119504;27;2335;-84
2023/01/03 09:50:35;;;;;;;;;;;;;;;5.44;67.39;101132.06;5119989;27;2035;-84
2023/01/03 10:04:13;;;;;;;;;;;;;;;5.33;67.97;101153.78;5100422;27;2153;-84
2023/01/03 10:06:39;;;;;;;;;;;;;;;5.41;67.63;101156.44;5118540;27;2390;-85
2023/01/03 10:09:06;;;;;;;;;;;;;;;5.50;67.28;101162.59;5126094;27;2058;-83
2023/01/03 10:11:33;;;;;;;;;;;;;;;5.35;67.80;101165.13;5122599;27;2324;-84
2023/01/03 10:13:59;;;;;;;;;;;;;;;5.42;67.61;101171.47;5116228;27;4799;-84
2023/01/03 10:16:26;;;;;;;;;;;;;;;5.42;67.55;101167.97;5119765;27;3817;-84
2023/01/03 10:18:52;;;;;;;;;;;;;;;5.40;67.65;101165.44;5116561;27;3732;-84
2023/01/03 10:21:19;;;;;;;;;;;;;;;5.43;67.49;101161.59;5126576;27;2166;-84
2023/01/03 10:23:45;;;;;;;;;;;;;;;5.45;67.27;101143.56;5116441;27;2046;-84
2023/01/03 10:26:12;;;;;;;;;;;;;;;5.55;67.22;101146.88;5117769;27;2066;-84
2023/01/03 10:28:39;;;;;;;;;;;;;;;5.38;67.84;101148.78;5114131;27;2228;-84
2023/01/03 10:31:06;;;;;;;;;;;;;;;5.46;67.23;101147.91;5136986;27;3889;-83
2023/01/03 10:33:33;;;;;;;;;;;;;;;5.44;67.66;101155.25;5122721;27;1947;-83
2023/01/03 10:35:59;;;;;;;;;;;;;;;5.43;67.58;101154.41;5122274;27;2502;-84
2023/01/03 10:38:26;;;;;;;;;;;;;;;5.33;67.99;101150.28;5123092;27;2049;-83
2023/01/03 10:40:52;;;;;;;;;;;;;;;5.41;67.78;101145.75;5131982;27;2204;-83
2023/01/03 10:43:19;;;;;;;;;;;;;;;5.44;67.62;101152.56;5131939;27;2180;-83
2023/01/03 10:45:45;;;;;;;;;;;;;;;5.53;67.41;101156.91;5150804;27;2066;-84
2023/01/03 10:48:12;;;;;;;;;;;;;;;5.45;67.43;101163.09;5114086;27;2512;-83
2023/01/03 10:50:38;;;;;;;;;;;;;;;5.44;67.56;101163.25;5114892;27;2113;-82
2023/01/03 10:53:05;;;;;;;;;;;;;;;5.44;67.61;101163.25;5112928;27;2382;-83
2023/01/03 10:55:32;;;;;;;;;;;;;;;5.41;67.67;101166.28;5119881;27;2076;-83
2023/01/03 10:57:58;;;;;;;;;;;;;;;5.43;67.75;101162.44;5124699;27;2740;-83
2023/01/03 11:00:25;;;;;;;;;;;;;;;5.41;67.79;101156.44;5127635;27;2157;-85
2023/01/03 11:02:52;;;;;;;;;;;;;;;5.34;68.06;101155.44;5130384;27;2246;-84
2023/01/03 11:05:18;;;;;;;;;;;;;;;5.44;67.62;101169.47;5127033;27;2085;-84
2023/01/03 11:07:45;;;;;;;;;;;;;;;5.43;67.70;101172.28;5112975;27;2345;-82
2023/01/03 11:10:13;;;;;;;;;;;;;;;5.53;67.46;101175.63;5116109;27;2167;-83
2023/01/03 11:12:40;;;;;;;;;;;;;;;5.50;67.55;101177.78;5116536;27;2596;-83
2023/01/03 11:15:07;;;;;;;;;;;;;;;5.50;67.68;101192.00;5126151;27;2047;-87
2023/01/03 11:17:34;;;;;;;;;;;;;;;5.55;67.42;101186.94;5127134;27;2244;-86
2023/01/03 11:20:01;;;;;;;;;;;;;;;5.33;68.03;101191.19;5120353;27;2190;-83
2023/01/03 11:22:27;;;;;;;;;;;;;;;5.45;67.56;101191.66;5118692;27;2117;-84
2023/01/03 11:24:54;;;;;;;;;;;;;;;5.39;67.53;101193.19;5123274;27;2136;-84
2023/01/03 11:27:20;;;;;;;;;;;;;;;5.45;67.88;101191.66;5118885;27;2063;-84
2023/01/03 11:29:47;;;;;;;;;;;;;;;5.38;68.02;101204.00;5120769;28;1704;-84
2023/01/03 11:32:13;;;;;;;;;;;;;;;5.36;68.14;101200.69;5132271;28;2162;-84
2023/01/03 11:34:40;;;;;;;;;;;;;;;5.41;68.01;101199.19;5120815;28;2212;-85
2023/01/03 11:37:07;;;;;;;;;;;;;;;5.35;68.24;101207.84;5129543;28;2005;-85
2023/01/03 11:39:33;;;;;;;;;;;;;;;5.47;67.80;101200.31;5126988;28;2079;-84
2023/01/03 11:42:00;;;;;;;;;;;;;;;5.28;68.51;101196.19;5131873;28;2209;-84
2023/01/03 11:44:26;;;;;;;;;;;;;;;5.38;68.21;101199.53;5119913;28;1690;-83
2023/01/03 11:46:53;;;;;;;;;;;;;;;5.35;68.41;101197.16;5125215;28;2601;-83
2023/01/03 11:49:20;;;;;;;;;;;;;;;5.46;67.90;101204.84;5117978;27;2261;-84
2023/01/03 11:51:46;;;;;;;;;;;;;;;5.45;67.89;101202.34;5130957;27;1306;-83
2023/01/03 11:54:13;;;;;;;;;;;;;;;5.45;68.10;101195.16;5136311;27;2054;-83
2023/01/03 11:56:40;;;;;;;;;;;;;;;5.39;68.33;101203.03;5125641;27;4176;-84
2023/01/03 11:59:08;;;;;;;;;;;;;;;5.44;68.18;101206.00;5117851;27;2021;-83
2023/01/03 12:01:34;;;;;;;;;;;;;;;5.47;68.13;101201.19;5131404;27;3793;-82
2023/01/03 12:04:01;;;;;;;;;;;;;;;5.38;68.46;101207.53;5132331;27;2193;-83
2023/01/03 12:06:27;;;;;;;;;;;;;;;5.35;68.66;101215.03;5129745;27;1895;-83
2023/01/03 12:08:54;;;;;;;;;;;;;;;5.43;68.36;101207.03;5124428;27;2067;-83
2023/01/03 12:11:20;;;;;;;;;;;;;;;5.66;67.61;101201.78;5122673;27;2021;-82
2023/01/03 12:13:47;;;;;;;;;;;;;;;5.50;68.19;101204.50;5131894;27;1263;-81
2023/01/03 12:16:13;;;;;;;;;;;;;;;5.34;68.86;101198.19;5118936;27;2034;-82
2023/01/03 12:18:40;;;;;;;;;;;;;;;5.56;68.01;101203.81;5123641;27;2194;-82
2023/01/03 12:21:06;;;;;;;;;;;;;;;5.53;68.38;101204.16;5129633;27;2277;-82
2023/01/03 12:23:33;;;;;;;;;;;;;;;5.52;68.25;101210.50;5127874;27;1920;-83
2023/01/03 12:25:59;;;;;;;;;;;;;;;5.57;68.08;101206.31;5123297;27;2246;-82
2023/01/03 12:28:26;;;;;;;;;;;;;;;5.53;68.30;101205.00;5135986;27;2142;-82
2023/01/03 12:30:53;;;;;;;;;;;;;;;5.41;68.67;101203.69;5122923;27;1995;-82
2023/01/03 12:33:20;;;;;;;;;;;;;;;5.44;68.86;101195.31;5119230;27;2138;-82
2023/01/03 12:35:47;;;;;;;;;;;;;;;5.37;68.94;101194.34;5117714;27;2209;-82
2023/01/03 12:38:13;;;;;;;;;;;;;;;5.50;68.38;101205.34;5136237;27;1950;-83
2023/01/03 12:40:40;;;;;;;;;;;;;;;5.46;68.76;101201.34;5131231;27;1995;-82
2023/01/03 12:43:06;;;;;;;;;;;;;;;5.48;68.71;101210.03;5126735;27;4972;-82
2023/01/03 12:45:33;;;;;;;;;;;;;;;5.54;68.41;101217.34;5129108;27;5363;-83
2023/01/03 12:48:00;;;;;;;;;;;;;;;5.59;68.35;101223.03;5137254;27;1286;-82
2023/01/03 12:50:26;;;;;;;;;;;;;;;5.58;68.45;101216.00;5129258;27;2300;-83
2023/01/03 12:52:53;;;;;;;;;;;;;;;5.53;68.57;101206.81;5129033;27;2357;-83
2023/01/03 12:55:20;;;;;;;;;;;;;;;5.57;68.62;101208.16;5128855;27;2167;-83
2023/01/03 12:57:46;;;;;;;;;;;;;;;5.61;68.61;101204.97;5126307;27;1993;-82
2023/01/03 13:00:16;;;;;;;;;;;;;;;5.60;68.61;101205.97;5123327;27;2492;-84
2023/01/03 13:02:42;;;;;;;;;;;;;;;5.50;68.86;101200.00;5118139;27;2007;-83
2023/01/03 13:05:09;;;;;;;;;;;;;;;5.57;68.70;101202.81;5126403;27;1710;-84
2023/01/03 13:07:36;;;;;;;;;;;;;;;5.56;68.90;101201.13;5126099;27;2212;-84
2023/01/03 13:10:03;;;;;;;;;;;;;;;5.53;69.14;101199.66;5132652;27;2062;-84
2023/01/03 13:12:29;;;;;;;;;;;;;;;5.61;68.56;101194.28;5129395;27;2118;-84
2023/01/03 13:14:56;;;;;;;;;;;;;;;5.61;68.73;101191.59;5121332;27;2002;-85
2023/01/03 13:17:22;;;;;;;;;;;;;;;5.74;68.43;101192.94;5124659;27;1310;-84
2023/01/03 13:19:49;;;;;;;;;;;;;;;5.68;68.56;101197.94;5128379;27;1714;-84
2023/01/03 13:22:16;;;;;;;;;;;;;;;5.65;68.76;101206.31;5123295;27;2140;-86
2023/01/03 13:24:42;;;;;;;;;;;;;;;5.57;69.18;101211.66;5120118;27;2150;-86
2023/01/03 13:27:09;;;;;;;;;;;;;;;5.67;68.74;101204.28;5129366;27;1921;-85
2023/01/03 13:29:35;;;;;;;;;;;;;;;5.59;69.25;101206.13;5129441;27;2416;-85
2023/01/03 13:32:02;;;;;;;;;;;;;;;5.54;69.25;101220.03;5123782;27;2629;-85
2023/01/03 13:34:29;;;;;;;;;;;;;;;5.79;68.33;101203.91;5124878;27;1942;-86
2023/01/03 13:36:55;;;;;;;;;;;;;;;5.77;68.49;101203.28;5124248;27;2069;-85
2023/01/03 13:39:22;;;;;;;;;;;;;;;5.77;68.39;101213.97;5131811;27;2583;-85
2023/01/03 13:41:49;;;;;;;;;;;;;;;5.77;68.30;101216.63;5125572;27;2143;-86
2023/01/03 13:44:15;;;;;;;;;;;;;;;5.72;68.76;101216.31;5121761;27;2070;-85
2023/01/03 13:46:42;;;;;;;;;;;;;;;5.85;68.33;101204.06;5123465;27;1890;-86
2023/01/03 13:49:08;;;;;;;;;;;;;;;5.82;68.51;101195.53;5133265;27;2305;-86
2023/01/03 13:51:35;;;;;;;;;;;;;;;5.74;68.92;101206.28;5129198;27;2163;-85
2023/01/03 13:54:01;;;;;;;;;;;;;;;5.94;68.16;101217.44;5125599;27;2090;-85
2023/01/03 13:56:28;;;;;;;;;;;;;;;5.87;68.63;101215.41;5121406;27;2047;-85
2023/01/03 13:58:54;;;;;;;;;;;;;;;5.83;68.25;101211.44;5119526;27;2548;-86
2023/01/03 14:01:21;;;;;;;;;;;;;;;5.98;67.95;101222.28;5124975;27;2130;-86